sensor_id;sensor_type;location;lat;lon;timestamp;P1;durP1;ratioP1;P2;durP2;ratioP2
14137;SDS011;8199;51.310;9.466;2023-07-02T00:01:33;5.03;;;3.73;;
14137;SDS011;8199;51.310;9.466;2023-07-02T00:03:58;3.87;;;3.50;;
14137;SDS011;8199;51.310;9.466;2023-07-02T00:06:24;3.88;;;3.45;;
14137;SDS011;8199;51.310;9.466;2023-07-02T00:08:50;4.68;;;3.60;;
14137;SDS011;8199;51.310;9.466;2023-07-02T00:11:16;6.03;;;3.80;;
14137;SDS011;8199;51.310;9.466;2023-07-02T00:13:41;6.75;;;3.50;;
14137;SDS011;8199;51.310;9.466;2023-07-02T00:16:07;5.73;;;3.60;;
14137;SDS011;8199;51.310;9.466;2023-07-02T00:18:32;5.93;;;4.00;;
14137;SDS011;8199;51.310;9.466;2023-07-02T00:21:02;5.95;;;3.83;;
14137;SDS011;8199;51.310;9.466;2023-07-02T00:23:28;10.52;;;4.07;;
14137;SDS011;8199;51.310;9.466;2023-07-02T00:25:54;5.03;;;3.92;;
14137;SDS011;8199;51.310;9.466;2023-07-02T00:28:21;5.35;;;3.88;;
14137;SDS011;8199;51.310;9.466;2023-07-02T00:30:47;6.40;;;4.00;;
14137;SDS011;8199;51.310;9.466;2023-07-02T00:33:12;6.10;;;4.30;;
14137;SDS011;8199;51.310;9.466;2023-07-02T00:35:38;4.63;;;4.20;;
14137;SDS011;8199;51.310;9.466;2023-07-02T00:38:03;4.97;;;4.47;;
14137;SDS011;8199;51.310;9.466;2023-07-02T00:40:29;5.88;;;4.75;;
14137;SDS011;8199;51.310;9.466;2023-07-02T00:42:54;7.87;;;4.83;;
14137;SDS011;8199;51.310;9.466;2023-07-02T00:45:21;5.80;;;5.27;;
14137;SDS011;8199;51.310;9.466;2023-07-02T00:47:47;5.63;;;5.00;;
14137;SDS011;8199;51.310;9.466;2023-07-02T00:50:13;7.00;;;5.20;;
14137;SDS011;8199;51.310;9.466;2023-07-02T00:52:39;7.20;;;4.67;;
14137;SDS011;8199;51.310;9.466;2023-07-02T00:55:04;6.50;;;4.72;;
14137;SDS011;8199;51.310;9.466;2023-07-02T00:57:30;6.50;;;5.10;;
14137;SDS011;8199;51.310;9.466;2023-07-02T00:59:57;9.83;;;4.73;;
14137;SDS011;8199;51.310;9.466;2023-07-02T01:02:25;5.90;;;4.45;;
14137;SDS011;8199;51.310;9.466;2023-07-02T01:04:54;5.67;;;4.10;;
14137;SDS011;8199;51.310;9.466;2023-07-02T01:07:24;4.67;;;4.10;;
14137;SDS011;8199;51.310;9.466;2023-07-02T01:09:50;5.70;;;4.60;;
14137;SDS011;8199;51.310;9.466;2023-07-02T01:12:16;6.13;;;4.57;;
14137;SDS011;8199;51.310;9.466;2023-07-02T01:14:47;4.83;;;4.30;;
14137;SDS011;8199;51.310;9.466;2023-07-02T01:17:14;7.87;;;4.57;;
14137;SDS011;8199;51.310;9.466;2023-07-02T01:19:45;5.33;;;4.80;;
14137;SDS011;8199;51.310;9.466;2023-07-02T01:22:19;6.23;;;4.30;;
14137;SDS011;8199;51.310;9.466;2023-07-02T01:24:52;5.90;;;4.83;;
14137;SDS011;8199;51.310;9.466;2023-07-02T01:27:20;5.10;;;4.60;;
14137;SDS011;8199;51.310;9.466;2023-07-02T01:29:46;5.73;;;4.53;;
14137;SDS011;8199;51.310;9.466;2023-07-02T01:32:15;6.00;;;4.63;;
14137;SDS011;8199;51.310;9.466;2023-07-02T01:34:41;5.63;;;4.97;;
14137;SDS011;8199;51.310;9.466;2023-07-02T01:37:08;6.37;;;5.00;;
14137;SDS011;8199;51.310;9.466;2023-07-02T01:39:34;4.77;;;4.27;;
14137;SDS011;8199;51.310;9.466;2023-07-02T01:42:09;6.33;;;4.67;;
14137;SDS011;8199;51.310;9.466;2023-07-02T01:44:37;6.40;;;4.40;;
14137;SDS011;8199;51.310;9.466;2023-07-02T01:47:04;6.93;;;4.80;;
14137;SDS011;8199;51.310;9.466;2023-07-02T01:49:30;5.80;;;4.83;;
14137;SDS011;8199;51.310;9.466;2023-07-02T01:51:55;6.43;;;4.17;;
14137;SDS011;8199;51.310;9.466;2023-07-02T01:54:22;4.80;;;4.27;;
14137;SDS011;8199;51.310;9.466;2023-07-02T01:56:51;5.73;;;4.57;;
14137;SDS011;8199;51.310;9.466;2023-07-02T01:59:17;5.00;;;3.93;;
14137;SDS011;8199;51.310;9.466;2023-07-02T02:01:43;9.07;;;4.47;;
14137;SDS011;8199;51.310;9.466;2023-07-02T02:04:09;6.27;;;4.13;;
14137;SDS011;8199;51.310;9.466;2023-07-02T02:06:35;5.50;;;4.07;;
14137;SDS011;8199;51.310;9.466;2023-07-02T02:09:02;4.93;;;4.47;;
14137;SDS011;8199;51.310;9.466;2023-07-02T02:11:31;4.60;;;4.13;;
14137;SDS011;8199;51.310;9.466;2023-07-02T02:13:58;4.77;;;4.00;;
14137;SDS011;8199;51.310;9.466;2023-07-02T02:16:26;6.30;;;4.20;;
14137;SDS011;8199;51.310;9.466;2023-07-02T02:18:52;5.97;;;4.00;;
14137;SDS011;8199;51.310;9.466;2023-07-02T02:21:18;5.07;;;3.53;;
14137;SDS011;8199;51.310;9.466;2023-07-02T02:23:44;5.13;;;4.03;;
14137;SDS011;8199;51.310;9.466;2023-07-02T02:26:10;7.13;;;4.50;;
14137;SDS011;8199;51.310;9.466;2023-07-02T02:28:35;9.67;;;4.27;;
14137;SDS011;8199;51.310;9.466;2023-07-02T02:31:01;4.50;;;4.10;;
14137;SDS011;8199;51.310;9.466;2023-07-02T02:33:27;6.40;;;3.73;;
14137;SDS011;8199;51.310;9.466;2023-07-02T02:35:53;4.63;;;4.17;;
14137;SDS011;8199;51.310;9.466;2023-07-02T02:38:19;7.17;;;4.40;;
14137;SDS011;8199;51.310;9.466;2023-07-02T02:40:44;8.23;;;3.57;;
14137;SDS011;8199;51.310;9.466;2023-07-02T02:43:10;9.50;;;3.97;;
14137;SDS011;8199;51.310;9.466;2023-07-02T02:45:36;6.77;;;3.50;;
14137;SDS011;8199;51.310;9.466;2023-07-02T02:48:01;4.97;;;3.30;;
14137;SDS011;8199;51.310;9.466;2023-07-02T02:50:27;4.93;;;3.17;;
14137;SDS011;8199;51.310;9.466;2023-07-02T02:52:52;4.50;;;3.27;;
14137;SDS011;8199;51.310;9.466;2023-07-02T02:55:18;7.83;;;4.67;;
14137;SDS011;8199;51.310;9.466;2023-07-02T02:57:44;5.97;;;4.50;;
14137;SDS011;8199;51.310;9.466;2023-07-02T03:00:10;6.77;;;4.40;;
14137;SDS011;8199;51.310;9.466;2023-07-02T03:02:36;4.53;;;3.47;;
14137;SDS011;8199;51.310;9.466;2023-07-02T03:05:02;5.20;;;3.23;;
14137;SDS011;8199;51.310;9.466;2023-07-02T03:07:29;4.17;;;3.50;;
14137;SDS011;8199;51.310;9.466;2023-07-02T03:09:54;8.53;;;3.30;;
14137;SDS011;8199;51.310;9.466;2023-07-02T03:12:21;7.17;;;5.90;;
14137;SDS011;8199;51.310;9.466;2023-07-02T03:14:47;4.53;;;4.10;;
14137;SDS011;8199;51.310;9.466;2023-07-02T03:17:16;6.73;;;3.97;;
14137;SDS011;8199;51.310;9.466;2023-07-02T03:19:42;6.87;;;4.20;;
14137;SDS011;8199;51.310;9.466;2023-07-02T03:22:07;5.87;;;3.80;;
14137;SDS011;8199;51.310;9.466;2023-07-02T03:24:33;5.03;;;3.80;;
14137;SDS011;8199;51.310;9.466;2023-07-02T03:26:58;4.67;;;3.20;;
14137;SDS011;8199;51.310;9.466;2023-07-02T03:29:24;5.13;;;3.57;;
14137;SDS011;8199;51.310;9.466;2023-07-02T03:31:50;5.13;;;3.50;;
14137;SDS011;8199;51.310;9.466;2023-07-02T03:34:15;5.90;;;3.50;;
14137;SDS011;8199;51.310;9.466;2023-07-02T03:36:41;5.50;;;3.60;;
14137;SDS011;8199;51.310;9.466;2023-07-02T03:39:06;4.27;;;3.63;;
14137;SDS011;8199;51.310;9.466;2023-07-02T03:41:32;5.97;;;4.50;;
14137;SDS011;8199;51.310;9.466;2023-07-02T03:43:58;5.30;;;3.97;;
14137;SDS011;8199;51.310;9.466;2023-07-02T03:46:23;4.60;;;3.60;;
14137;SDS011;8199;51.310;9.466;2023-07-02T03:48:49;5.57;;;3.70;;
14137;SDS011;8199;51.310;9.466;2023-07-02T03:51:14;4.70;;;3.50;;
14137;SDS011;8199;51.310;9.466;2023-07-02T03:53:41;4.33;;;3.60;;
14137;SDS011;8199;51.310;9.466;2023-07-02T03:56:06;4.77;;;3.83;;
14137;SDS011;8199;51.310;9.466;2023-07-02T03:58:32;5.13;;;4.23;;
14137;SDS011;8199;51.310;9.466;2023-07-02T04:00:58;4.83;;;4.40;;
14137;SDS011;8199;51.310;9.466;2023-07-02T04:03:24;5.43;;;4.17;;
14137;SDS011;8199;51.310;9.466;2023-07-02T04:05:50;5.57;;;5.07;;
14137;SDS011;8199;51.310;9.466;2023-07-02T04:08:15;6.73;;;4.40;;
14137;SDS011;8199;51.310;9.466;2023-07-02T04:10:41;6.47;;;4.37;;
14137;SDS011;8199;51.310;9.466;2023-07-02T04:13:07;6.37;;;5.10;;
14137;SDS011;8199;51.310;9.466;2023-07-02T04:15:33;5.40;;;5.00;;
14137;SDS011;8199;51.310;9.466;2023-07-02T04:17:59;5.57;;;4.97;;
14137;SDS011;8199;51.310;9.466;2023-07-02T04:20:24;7.67;;;5.00;;
14137;SDS011;8199;51.310;9.466;2023-07-02T04:22:50;5.23;;;4.73;;
14137;SDS011;8199;51.310;9.466;2023-07-02T04:25:16;5.47;;;4.97;;
14137;SDS011;8199;51.310;9.466;2023-07-02T04:27:42;5.57;;;5.03;;
14137;SDS011;8199;51.310;9.466;2023-07-02T04:30:09;5.80;;;4.90;;
14137;SDS011;8199;51.310;9.466;2023-07-02T04:32:38;6.60;;;5.37;;
14137;SDS011;8199;51.310;9.466;2023-07-02T04:35:05;7.43;;;5.30;;
14137;SDS011;8199;51.310;9.466;2023-07-02T04:37:32;5.17;;;4.73;;
14137;SDS011;8199;51.310;9.466;2023-07-02T04:39:57;5.70;;;5.20;;
14137;SDS011;8199;51.310;9.466;2023-07-02T04:42:23;9.40;;;8.47;;
14137;SDS011;8199;51.310;9.466;2023-07-02T04:44:56;6.57;;;5.50;;
14137;SDS011;8199;51.310;9.466;2023-07-02T04:47:27;7.63;;;5.17;;
14137;SDS011;8199;51.310;9.466;2023-07-02T04:49:53;6.40;;;4.83;;
14137;SDS011;8199;51.310;9.466;2023-07-02T04:52:19;6.57;;;5.53;;
14137;SDS011;8199;51.310;9.466;2023-07-02T04:54:44;5.73;;;5.13;;
14137;SDS011;8199;51.310;9.466;2023-07-02T04:57:10;5.80;;;5.20;;
14137;SDS011;8199;51.310;9.466;2023-07-02T04:59:36;5.93;;;5.33;;
14137;SDS011;8199;51.310;9.466;2023-07-02T05:02:01;5.93;;;5.03;;
14137;SDS011;8199;51.310;9.466;2023-07-02T05:04:27;6.57;;;5.93;;
14137;SDS011;8199;51.310;9.466;2023-07-02T05:06:53;8.77;;;7.10;;
14137;SDS011;8199;51.310;9.466;2023-07-02T05:09:18;14.20;;;12.73;;
14137;SDS011;8199;51.310;9.466;2023-07-02T05:11:44;6.17;;;5.60;;
14137;SDS011;8199;51.310;9.466;2023-07-02T05:14:09;6.80;;;4.70;;
14137;SDS011;8199;51.310;9.466;2023-07-02T05:16:35;5.93;;;5.10;;
14137;SDS011;8199;51.310;9.466;2023-07-02T05:19:00;6.23;;;4.77;;
14137;SDS011;8199;51.310;9.466;2023-07-02T05:21:26;7.63;;;4.90;;
14137;SDS011;8199;51.310;9.466;2023-07-02T05:23:51;5.60;;;4.97;;
14137;SDS011;8199;51.310;9.466;2023-07-02T05:26:17;6.00;;;5.30;;
14137;SDS011;8199;51.310;9.466;2023-07-02T05:28:42;6.60;;;5.23;;
14137;SDS011;8199;51.310;9.466;2023-07-02T05:31:09;6.80;;;5.83;;
14137;SDS011;8199;51.310;9.466;2023-07-02T05:33:35;6.00;;;5.37;;
14137;SDS011;8199;51.310;9.466;2023-07-02T05:36:00;7.27;;;5.20;;
14137;SDS011;8199;51.310;9.466;2023-07-02T05:38:26;6.50;;;5.77;;
14137;SDS011;8199;51.310;9.466;2023-07-02T05:40:52;7.80;;;6.20;;
14137;SDS011;8199;51.310;9.466;2023-07-02T05:43:17;6.30;;;5.60;;
14137;SDS011;8199;51.310;9.466;2023-07-02T05:45:43;8.50;;;7.37;;
14137;SDS011;8199;51.310;9.466;2023-07-02T05:48:08;9.37;;;6.43;;
14137;SDS011;8199;51.310;9.466;2023-07-02T05:50:34;8.50;;;6.70;;
14137;SDS011;8199;51.310;9.466;2023-07-02T05:53:00;9.17;;;6.87;;
14137;SDS011;8199;51.310;9.466;2023-07-02T05:55:25;8.27;;;7.00;;
14137;SDS011;8199;51.310;9.466;2023-07-02T05:57:51;10.03;;;7.67;;
14137;SDS011;8199;51.310;9.466;2023-07-02T06:00:16;8.23;;;7.10;;
14137;SDS011;8199;51.310;9.466;2023-07-02T06:02:42;10.60;;;8.97;;
14137;SDS011;8199;51.310;9.466;2023-07-02T06:05:08;10.70;;;8.50;;
14137;SDS011;8199;51.310;9.466;2023-07-02T06:07:33;8.47;;;7.27;;
14137;SDS011;8199;51.310;9.466;2023-07-02T06:09:59;9.13;;;7.50;;
14137;SDS011;8199;51.310;9.466;2023-07-02T06:12:24;9.10;;;6.97;;
14137;SDS011;8199;51.310;9.466;2023-07-02T06:14:50;9.80;;;7.33;;
14137;SDS011;8199;51.310;9.466;2023-07-02T06:17:16;10.90;;;8.50;;
14137;SDS011;8199;51.310;9.466;2023-07-02T06:19:41;8.73;;;7.30;;
14137;SDS011;8199;51.310;9.466;2023-07-02T06:22:07;9.60;;;7.83;;
14137;SDS011;8199;51.310;9.466;2023-07-02T06:24:32;10.67;;;7.17;;
14137;SDS011;8199;51.310;9.466;2023-07-02T06:26:58;12.83;;;7.50;;
14137;SDS011;8199;51.310;9.466;2023-07-02T06:29:24;9.60;;;7.67;;
14137;SDS011;8199;51.310;9.466;2023-07-02T06:31:49;9.87;;;7.67;;
14137;SDS011;8199;51.310;9.466;2023-07-02T06:34:15;10.63;;;7.70;;
14137;SDS011;8199;51.310;9.466;2023-07-02T06:36:41;9.47;;;7.63;;
14137;SDS011;8199;51.310;9.466;2023-07-02T06:39:07;9.97;;;8.00;;
14137;SDS011;8199;51.310;9.466;2023-07-02T06:41:34;9.47;;;7.60;;
14137;SDS011;8199;51.310;9.466;2023-07-02T06:44:00;9.87;;;7.80;;
14137;SDS011;8199;51.310;9.466;2023-07-02T06:46:26;10.10;;;8.50;;
14137;SDS011;8199;51.310;9.466;2023-07-02T06:48:51;9.63;;;7.57;;
14137;SDS011;8199;51.310;9.466;2023-07-02T06:51:17;10.03;;;8.90;;
14137;SDS011;8199;51.310;9.466;2023-07-02T06:53:44;9.73;;;8.23;;
14137;SDS011;8199;51.310;9.466;2023-07-02T06:56:09;9.37;;;8.33;;
14137;SDS011;8199;51.310;9.466;2023-07-02T06:58:35;9.87;;;8.47;;
14137;SDS011;8199;51.310;9.466;2023-07-02T07:01:01;12.57;;;8.20;;
14137;SDS011;8199;51.310;9.466;2023-07-02T07:03:27;10.10;;;7.55;;
14137;SDS011;8199;51.310;9.466;2023-07-02T07:05:52;11.03;;;7.90;;
14137;SDS011;8199;51.310;9.466;2023-07-02T07:08:18;12.93;;;8.33;;
14137;SDS011;8199;51.310;9.466;2023-07-02T07:10:44;14.00;;;8.37;;
14137;SDS011;8199;51.310;9.466;2023-07-02T07:13:10;10.50;;;8.87;;
14137;SDS011;8199;51.310;9.466;2023-07-02T07:15:36;9.43;;;8.07;;
14137;SDS011;8199;51.310;9.466;2023-07-02T07:18:02;11.63;;;9.00;;
14137;SDS011;8199;51.310;9.466;2023-07-02T07:20:27;9.83;;;8.47;;
14137;SDS011;8199;51.310;9.466;2023-07-02T07:22:54;10.63;;;8.75;;
14137;SDS011;8199;51.310;9.466;2023-07-02T07:25:19;14.27;;;10.35;;
14137;SDS011;8199;51.310;9.466;2023-07-02T07:27:51;11.67;;;8.97;;
14137;SDS011;8199;51.310;9.466;2023-07-02T07:30:17;12.75;;;8.57;;
14137;SDS011;8199;51.310;9.466;2023-07-02T07:32:47;16.90;;;9.23;;
14137;SDS011;8199;51.310;9.466;2023-07-02T07:35:17;11.77;;;8.33;;
14137;SDS011;8199;51.310;9.466;2023-07-02T07:37:46;16.20;;;9.60;;
14137;SDS011;8199;51.310;9.466;2023-07-02T07:40:12;12.67;;;8.67;;
14137;SDS011;8199;51.310;9.466;2023-07-02T07:42:38;12.57;;;8.90;;
14137;SDS011;8199;51.310;9.466;2023-07-02T07:45:07;13.23;;;8.60;;
14137;SDS011;8199;51.310;9.466;2023-07-02T07:47:34;11.70;;;8.50;;
14137;SDS011;8199;51.310;9.466;2023-07-02T07:49:59;13.60;;;8.77;;
14137;SDS011;8199;51.310;9.466;2023-07-02T07:52:25;13.03;;;8.50;;
14137;SDS011;8199;51.310;9.466;2023-07-02T07:54:50;13.13;;;8.33;;
14137;SDS011;8199;51.310;9.466;2023-07-02T07:57:16;13.63;;;8.70;;
14137;SDS011;8199;51.310;9.466;2023-07-02T07:59:41;14.77;;;8.40;;
14137;SDS011;8199;51.310;9.466;2023-07-02T08:02:07;14.53;;;8.73;;
14137;SDS011;8199;51.310;9.466;2023-07-02T08:04:34;14.77;;;8.53;;
14137;SDS011;8199;51.310;9.466;2023-07-02T08:06:59;17.00;;;8.53;;
14137;SDS011;8199;51.310;9.466;2023-07-02T08:09:25;15.33;;;8.63;;
14137;SDS011;8199;51.310;9.466;2023-07-02T08:11:50;15.07;;;8.23;;
14137;SDS011;8199;51.310;9.466;2023-07-02T08:14:16;16.27;;;8.80;;
14137;SDS011;8199;51.310;9.466;2023-07-02T08:16:45;14.87;;;8.43;;
14137;SDS011;8199;51.310;9.466;2023-07-02T08:19:11;15.90;;;8.50;;
14137;SDS011;8199;51.310;9.466;2023-07-02T08:21:36;16.37;;;8.90;;
14137;SDS011;8199;51.310;9.466;2023-07-02T08:24:02;13.70;;;8.93;;
14137;SDS011;8199;51.310;9.466;2023-07-02T08:26:30;12.67;;;8.27;;
14137;SDS011;8199;51.310;9.466;2023-07-02T08:28:56;13.80;;;9.10;;
14137;SDS011;8199;51.310;9.466;2023-07-02T08:31:22;11.53;;;8.57;;
14137;SDS011;8199;51.310;9.466;2023-07-02T08:33:48;13.60;;;9.27;;
14137;SDS011;8199;51.310;9.466;2023-07-02T08:36:13;14.80;;;9.40;;
14137;SDS011;8199;51.310;9.466;2023-07-02T08:38:39;11.35;;;8.80;;
14137;SDS011;8199;51.310;9.466;2023-07-02T08:41:07;19.47;;;9.43;;
14137;SDS011;8199;51.310;9.466;2023-07-02T08:43:33;13.73;;;9.52;;
14137;SDS011;8199;51.310;9.466;2023-07-02T08:46:00;16.15;;;9.07;;
14137;SDS011;8199;51.310;9.466;2023-07-02T08:48:27;19.13;;;9.32;;
14137;SDS011;8199;51.310;9.466;2023-07-02T08:50:54;12.68;;;9.35;;
14137;SDS011;8199;51.310;9.466;2023-07-02T08:53:20;16.30;;;9.73;;
14137;SDS011;8199;51.310;9.466;2023-07-02T08:55:54;12.73;;;9.27;;
14137;SDS011;8199;51.310;9.466;2023-07-02T08:58:21;14.18;;;9.13;;
14137;SDS011;8199;51.310;9.466;2023-07-02T09:03:32;12.75;;;8.93;;
14137;SDS011;8199;51.310;9.466;2023-07-02T09:05:58;13.10;;;8.93;;
14137;SDS011;8199;51.310;9.466;2023-07-02T09:08:27;15.27;;;9.23;;
14137;SDS011;8199;51.310;9.466;2023-07-02T09:10:53;14.55;;;8.82;;
14137;SDS011;8199;51.310;9.466;2023-07-02T09:13:19;11.73;;;8.98;;
14137;SDS011;8199;51.310;9.466;2023-07-02T09:15:45;12.25;;;8.50;;
14137;SDS011;8199;51.310;9.466;2023-07-02T09:18:17;12.88;;;9.20;;
14137;SDS011;8199;51.310;9.466;2023-07-02T09:20:44;13.23;;;9.57;;
14137;SDS011;8199;51.310;9.466;2023-07-02T09:23:10;13.52;;;8.68;;
14137;SDS011;8199;51.310;9.466;2023-07-02T09:25:36;17.00;;;9.68;;
14137;SDS011;8199;51.310;9.466;2023-07-02T09:28:13;15.32;;;9.38;;
14137;SDS011;8199;51.310;9.466;2023-07-02T09:30:49;16.42;;;10.50;;
14137;SDS011;8199;51.310;9.466;2023-07-02T09:33:18;16.02;;;10.68;;
14137;SDS011;8199;51.310;9.466;2023-07-02T09:35:44;17.55;;;10.93;;
14137;SDS011;8199;51.310;9.466;2023-07-02T09:38:10;20.80;;;11.55;;
14137;SDS011;8199;51.310;9.466;2023-07-02T09:40:37;14.65;;;9.95;;
14137;SDS011;8199;51.310;9.466;2023-07-02T09:43:12;14.70;;;9.18;;
14137;SDS011;8199;51.310;9.466;2023-07-02T09:45:42;18.15;;;9.77;;
14137;SDS011;8199;51.310;9.466;2023-07-02T09:48:14;12.55;;;8.85;;
14137;SDS011;8199;51.310;9.466;2023-07-02T09:50:48;11.30;;;8.55;;
14137;SDS011;8199;51.310;9.466;2023-07-02T09:53:14;13.88;;;9.40;;
14137;SDS011;8199;51.310;9.466;2023-07-02T09:55:43;13.70;;;9.25;;
14137;SDS011;8199;51.310;9.466;2023-07-02T09:58:09;14.88;;;8.30;;
14137;SDS011;8199;51.310;9.466;2023-07-02T10:00:36;12.82;;;8.70;;
14137;SDS011;8199;51.310;9.466;2023-07-02T10:03:03;17.40;;;9.65;;
14137;SDS011;8199;51.310;9.466;2023-07-02T10:05:29;13.23;;;8.45;;
14137;SDS011;8199;51.310;9.466;2023-07-02T10:08:12;12.75;;;9.20;;
14137;SDS011;8199;51.310;9.466;2023-07-02T10:10:38;13.45;;;8.80;;
14137;SDS011;8199;51.310;9.466;2023-07-02T10:13:04;13.90;;;8.77;;
14137;SDS011;8199;51.310;9.466;2023-07-02T10:15:33;20.42;;;8.85;;
14137;SDS011;8199;51.310;9.466;2023-07-02T10:18:02;21.30;;;9.52;;
14137;SDS011;8199;51.310;9.466;2023-07-02T10:20:41;16.33;;;10.82;;
14137;SDS011;8199;51.310;9.466;2023-07-02T10:23:07;16.15;;;9.07;;
